sensor_id;sensor_type;location;lat;lon;timestamp;P1;durP1;ratioP1;P2;durP2;ratioP2
6626;SDS011;3349;49.830;8.748;2023-06-24T00:01:33;6.50;;;5.85;;
6626;SDS011;3349;49.830;8.748;2023-06-24T00:04:00;6.28;;;5.68;;
6626;SDS011;3349;49.830;8.748;2023-06-24T00:06:26;6.95;;;6.10;;
6626;SDS011;3349;49.830;8.748;2023-06-24T00:08:54;6.03;;;5.43;;
6626;SDS011;3349;49.830;8.748;2023-06-24T00:11:26;6.22;;;5.65;;
6626;SDS011;3349;49.830;8.748;2023-06-24T00:13:53;7.18;;;6.00;;
6626;SDS011;3349;49.830;8.748;2023-06-24T00:16:20;6.32;;;5.72;;
6626;SDS011;3349;49.830;8.748;2023-06-24T00:18:52;8.00;;;5.30;;
6626;SDS011;3349;49.830;8.748;2023-06-24T00:21:20;6.30;;;5.68;;
6626;SDS011;3349;49.830;8.748;2023-06-24T00:23:47;7.80;;;5.75;;
6626;SDS011;3349;49.830;8.748;2023-06-24T00:26:16;6.43;;;5.72;;
6626;SDS011;3349;49.830;8.748;2023-06-24T00:28:42;6.07;;;5.47;;
6626;SDS011;3349;49.830;8.748;2023-06-24T00:31:09;8.10;;;5.95;;
6626;SDS011;3349;49.830;8.748;2023-06-24T00:33:36;6.07;;;5.55;;
6626;SDS011;3349;49.830;8.748;2023-06-24T00:36:03;6.80;;;6.10;;
6626;SDS011;3349;49.830;8.748;2023-06-24T00:38:31;6.43;;;5.82;;
6626;SDS011;3349;49.830;8.748;2023-06-24T00:40:58;6.97;;;5.88;;
6626;SDS011;3349;49.830;8.748;2023-06-24T00:43:26;6.53;;;5.93;;
6626;SDS011;3349;49.830;8.748;2023-06-24T00:45:54;8.95;;;6.07;;
6626;SDS011;3349;49.830;8.748;2023-06-24T00:48:21;7.97;;;5.80;;
6626;SDS011;3349;49.830;8.748;2023-06-24T00:50:49;7.22;;;5.68;;
6626;SDS011;3349;49.830;8.748;2023-06-24T00:53:16;6.57;;;5.70;;
6626;SDS011;3349;49.830;8.748;2023-06-24T00:55:43;6.70;;;6.00;;
6626;SDS011;3349;49.830;8.748;2023-06-24T00:58:10;6.22;;;5.63;;
6626;SDS011;3349;49.830;8.748;2023-06-24T01:00:42;5.88;;;5.20;;
6626;SDS011;3349;49.830;8.748;2023-06-24T01:03:11;9.43;;;5.72;;
6626;SDS011;3349;49.830;8.748;2023-06-24T01:05:39;8.57;;;5.72;;
6626;SDS011;3349;49.830;8.748;2023-06-24T01:08:06;7.50;;;6.00;;
6626;SDS011;3349;49.830;8.748;2023-06-24T01:10:35;6.55;;;5.63;;
6626;SDS011;3349;49.830;8.748;2023-06-24T01:13:01;6.00;;;5.40;;
6626;SDS011;3349;49.830;8.748;2023-06-24T01:15:28;7.28;;;5.88;;
6626;SDS011;3349;49.830;8.748;2023-06-24T01:17:59;7.75;;;6.15;;
6626;SDS011;3349;49.830;8.748;2023-06-24T01:20:31;6.15;;;5.60;;
6626;SDS011;3349;49.830;8.748;2023-06-24T01:23:23;7.10;;;6.00;;
6626;SDS011;3349;49.830;8.748;2023-06-24T01:26:14;5.97;;;5.38;;
6626;SDS011;3349;49.830;8.748;2023-06-24T01:29:07;6.68;;;6.03;;
6626;SDS011;3349;49.830;8.748;2023-06-24T01:31:48;6.47;;;5.88;;
6626;SDS011;3349;49.830;8.748;2023-06-24T01:34:22;6.55;;;5.88;;
6626;SDS011;3349;49.830;8.748;2023-06-24T01:36:55;6.15;;;5.30;;
6626;SDS011;3349;49.830;8.748;2023-06-24T01:39:31;6.55;;;5.55;;
6626;SDS011;3349;49.830;8.748;2023-06-24T01:42:03;6.95;;;6.10;;
6626;SDS011;3349;49.830;8.748;2023-06-24T01:44:34;7.57;;;5.95;;
6626;SDS011;3349;49.830;8.748;2023-06-24T01:47:03;5.90;;;5.40;;
6626;SDS011;3349;49.830;8.748;2023-06-24T01:49:32;6.13;;;5.57;;
6626;SDS011;3349;49.830;8.748;2023-06-24T01:52:02;6.95;;;6.30;;
6626;SDS011;3349;49.830;8.748;2023-06-24T01:54:32;6.80;;;6.20;;
6626;SDS011;3349;49.830;8.748;2023-06-24T01:57:01;6.70;;;6.03;;
6626;SDS011;3349;49.830;8.748;2023-06-24T01:59:32;7.60;;;6.18;;
6626;SDS011;3349;49.830;8.748;2023-06-24T02:01:59;8.25;;;6.18;;
6626;SDS011;3349;49.830;8.748;2023-06-24T02:04:28;6.53;;;5.88;;
6626;SDS011;3349;49.830;8.748;2023-06-24T02:06:56;7.90;;;6.00;;
6626;SDS011;3349;49.830;8.748;2023-06-24T02:09:26;8.95;;;6.60;;
6626;SDS011;3349;49.830;8.748;2023-06-24T02:11:55;6.53;;;5.93;;
6626;SDS011;3349;49.830;8.748;2023-06-24T02:14:23;7.57;;;5.65;;
6626;SDS011;3349;49.830;8.748;2023-06-24T02:16:52;6.13;;;5.50;;
6626;SDS011;3349;49.830;8.748;2023-06-24T02:19:22;6.75;;;6.07;;
6626;SDS011;3349;49.830;8.748;2023-06-24T02:21:52;6.50;;;5.90;;
6626;SDS011;3349;49.830;8.748;2023-06-24T02:24:20;6.07;;;5.40;;
6626;SDS011;3349;49.830;8.748;2023-06-24T02:26:47;6.88;;;5.97;;
6626;SDS011;3349;49.830;8.748;2023-06-24T02:29:14;6.45;;;5.85;;
6626;SDS011;3349;49.830;8.748;2023-06-24T02:31:41;6.70;;;6.07;;
6626;SDS011;3349;49.830;8.748;2023-06-24T02:34:08;8.27;;;6.47;;
6626;SDS011;3349;49.830;8.748;2023-06-24T02:36:35;6.60;;;5.93;;
6626;SDS011;3349;49.830;8.748;2023-06-24T02:39:04;7.40;;;6.63;;
6626;SDS011;3349;49.830;8.748;2023-06-24T02:41:31;6.45;;;5.82;;
6626;SDS011;3349;49.830;8.748;2023-06-24T02:43:57;7.05;;;6.30;;
6626;SDS011;3349;49.830;8.748;2023-06-24T02:46:25;7.60;;;6.25;;
6626;SDS011;3349;49.830;8.748;2023-06-24T02:48:54;6.40;;;5.80;;
6626;SDS011;3349;49.830;8.748;2023-06-24T02:51:22;9.50;;;6.28;;
6626;SDS011;3349;49.830;8.748;2023-06-24T02:53:49;6.70;;;5.93;;
6626;SDS011;3349;49.830;8.748;2023-06-24T02:56:18;7.00;;;6.07;;
6626;SDS011;3349;49.830;8.748;2023-06-24T02:58:47;7.25;;;6.43;;
6626;SDS011;3349;49.830;8.748;2023-06-24T03:01:15;7.35;;;6.10;;
6626;SDS011;3349;49.830;8.748;2023-06-24T03:03:43;6.40;;;5.80;;
6626;SDS011;3349;49.830;8.748;2023-06-24T03:06:14;7.13;;;6.43;;
6626;SDS011;3349;49.830;8.748;2023-06-24T03:08:42;7.30;;;6.60;;
6626;SDS011;3349;49.830;8.748;2023-06-24T03:11:11;7.82;;;6.55;;
6626;SDS011;3349;49.830;8.748;2023-06-24T03:13:40;7.13;;;6.40;;
6626;SDS011;3349;49.830;8.748;2023-06-24T03:16:07;8.45;;;6.30;;
6626;SDS011;3349;49.830;8.748;2023-06-24T03:18:37;7.68;;;6.25;;
6626;SDS011;3349;49.830;8.748;2023-06-24T03:21:04;7.00;;;6.30;;
6626;SDS011;3349;49.830;8.748;2023-06-24T03:23:31;7.65;;;6.15;;
6626;SDS011;3349;49.830;8.748;2023-06-24T03:25:58;7.72;;;6.38;;
6626;SDS011;3349;49.830;8.748;2023-06-24T03:28:25;9.65;;;6.10;;
6626;SDS011;3349;49.830;8.748;2023-06-24T03:30:53;7.93;;;6.18;;
6626;SDS011;3349;49.830;8.748;2023-06-24T03:33:20;7.43;;;5.88;;
6626;SDS011;3349;49.830;8.748;2023-06-24T03:35:46;7.18;;;6.47;;
6626;SDS011;3349;49.830;8.748;2023-06-24T03:38:13;7.47;;;5.97;;
6626;SDS011;3349;49.830;8.748;2023-06-24T03:40:40;7.28;;;6.13;;
6626;SDS011;3349;49.830;8.748;2023-06-24T03:43:06;7.25;;;6.13;;
6626;SDS011;3349;49.830;8.748;2023-06-24T03:45:33;7.47;;;6.20;;
6626;SDS011;3349;49.830;8.748;2023-06-24T03:48:01;7.00;;;6.20;;
6626;SDS011;3349;49.830;8.748;2023-06-24T03:50:28;7.55;;;6.38;;
6626;SDS011;3349;49.830;8.748;2023-06-24T03:52:55;7.85;;;6.30;;
6626;SDS011;3349;49.830;8.748;2023-06-24T03:55:21;7.90;;;7.00;;
6626;SDS011;3349;49.830;8.748;2023-06-24T03:57:48;7.38;;;6.68;;
6626;SDS011;3349;49.830;8.748;2023-06-24T04:00:15;12.18;;;6.60;;
6626;SDS011;3349;49.830;8.748;2023-06-24T04:02:45;8.32;;;6.70;;
6626;SDS011;3349;49.830;8.748;2023-06-24T04:05:14;8.48;;;6.35;;
6626;SDS011;3349;49.830;8.748;2023-06-24T04:07:41;8.40;;;6.90;;
6626;SDS011;3349;49.830;8.748;2023-06-24T04:10:12;7.90;;;6.57;;
6626;SDS011;3349;49.830;8.748;2023-06-24T04:12:39;7.45;;;6.75;;
6626;SDS011;3349;49.830;8.748;2023-06-24T04:15:07;6.78;;;6.07;;
6626;SDS011;3349;49.830;8.748;2023-06-24T04:17:34;8.05;;;6.80;;
6626;SDS011;3349;49.830;8.748;2023-06-24T04:20:01;7.22;;;6.50;;
6626;SDS011;3349;49.830;8.748;2023-06-24T04:22:30;8.30;;;7.30;;
6626;SDS011;3349;49.830;8.748;2023-06-24T04:24:57;6.95;;;6.35;;
6626;SDS011;3349;49.830;8.748;2023-06-24T04:27:23;8.85;;;6.60;;
6626;SDS011;3349;49.830;8.748;2023-06-24T04:29:50;7.78;;;7.07;;
6626;SDS011;3349;49.830;8.748;2023-06-24T04:32:17;7.57;;;6.88;;
6626;SDS011;3349;49.830;8.748;2023-06-24T04:34:44;8.30;;;6.60;;
6626;SDS011;3349;49.830;8.748;2023-06-24T04:37:10;7.13;;;6.43;;
6626;SDS011;3349;49.830;8.748;2023-06-24T04:39:38;11.95;;;7.03;;
6626;SDS011;3349;49.830;8.748;2023-06-24T04:42:05;8.70;;;6.88;;
6626;SDS011;3349;49.830;8.748;2023-06-24T04:44:32;9.40;;;7.05;;
6626;SDS011;3349;49.830;8.748;2023-06-24T04:46:58;7.50;;;6.80;;
6626;SDS011;3349;49.830;8.748;2023-06-24T04:49:25;10.13;;;7.10;;
6626;SDS011;3349;49.830;8.748;2023-06-24T04:51:52;8.43;;;6.97;;
6626;SDS011;3349;49.830;8.748;2023-06-24T04:54:18;7.80;;;7.00;;
6626;SDS011;3349;49.830;8.748;2023-06-24T04:56:47;7.85;;;7.05;;
6626;SDS011;3349;49.830;8.748;2023-06-24T04:59:15;7.70;;;6.90;;
6626;SDS011;3349;49.830;8.748;2023-06-24T05:01:42;7.88;;;6.53;;
6626;SDS011;3349;49.830;8.748;2023-06-24T05:04:09;10.40;;;6.63;;
6626;SDS011;3349;49.830;8.748;2023-06-24T05:06:36;8.25;;;6.68;;
6626;SDS011;3349;49.830;8.748;2023-06-24T05:09:02;7.47;;;6.72;;
6626;SDS011;3349;49.830;8.748;2023-06-24T05:11:29;7.75;;;6.50;;
6626;SDS011;3349;49.830;8.748;2023-06-24T05:13:57;8.60;;;7.00;;
6626;SDS011;3349;49.830;8.748;2023-06-24T05:16:24;7.20;;;6.43;;
6626;SDS011;3349;49.830;8.748;2023-06-24T05:18:50;8.88;;;6.78;;
6626;SDS011;3349;49.830;8.748;2023-06-24T05:21:17;8.43;;;7.07;;
6626;SDS011;3349;49.830;8.748;2023-06-24T05:23:44;8.93;;;6.97;;
6626;SDS011;3349;49.830;8.748;2023-06-24T05:26:10;9.75;;;6.93;;
6626;SDS011;3349;49.830;8.748;2023-06-24T05:28:37;7.80;;;7.00;;
6626;SDS011;3349;49.830;8.748;2023-06-24T05:31:05;7.70;;;6.90;;
6626;SDS011;3349;49.830;8.748;2023-06-24T05:33:32;8.45;;;6.88;;
6626;SDS011;3349;49.830;8.748;2023-06-24T05:35:58;7.18;;;6.57;;
6626;SDS011;3349;49.830;8.748;2023-06-24T05:38:25;7.95;;;7.15;;
6626;SDS011;3349;49.830;8.748;2023-06-24T05:40:52;9.15;;;6.93;;
6626;SDS011;3349;49.830;8.748;2023-06-24T05:43:19;10.52;;;7.70;;
6626;SDS011;3349;49.830;8.748;2023-06-24T05:45:45;7.53;;;6.50;;
6626;SDS011;3349;49.830;8.748;2023-06-24T05:48:13;7.47;;;6.78;;
6626;SDS011;3349;49.830;8.748;2023-06-24T05:50:40;8.05;;;6.95;;
6626;SDS011;3349;49.830;8.748;2023-06-24T05:53:07;7.55;;;6.80;;
6626;SDS011;3349;49.830;8.748;2023-06-24T05:55:33;9.68;;;6.70;;
6626;SDS011;3349;49.830;8.748;2023-06-24T05:58:00;8.80;;;7.20;;
6626;SDS011;3349;49.830;8.748;2023-06-24T06:00:27;7.20;;;6.50;;
6626;SDS011;3349;49.830;8.748;2023-06-24T06:02:54;10.05;;;6.88;;
6626;SDS011;3349;49.830;8.748;2023-06-24T06:05:22;9.90;;;7.20;;
6626;SDS011;3349;49.830;8.748;2023-06-24T06:07:48;9.50;;;6.97;;
6626;SDS011;3349;49.830;8.748;2023-06-24T06:10:17;8.05;;;6.63;;
6626;SDS011;3349;49.830;8.748;2023-06-24T06:12:43;8.23;;;6.80;;
6626;SDS011;3349;49.830;8.748;2023-06-24T06:15:10;8.88;;;6.38;;
6626;SDS011;3349;49.830;8.748;2023-06-24T06:17:37;7.05;;;6.35;;
6626;SDS011;3349;49.830;8.748;2023-06-24T06:20:04;8.23;;;6.55;;
6626;SDS011;3349;49.830;8.748;2023-06-24T06:22:33;7.80;;;6.57;;
6626;SDS011;3349;49.830;8.748;2023-06-24T06:25:02;9.73;;;6.20;;
6626;SDS011;3349;49.830;8.748;2023-06-24T06:27:30;8.23;;;6.25;;
6626;SDS011;3349;49.830;8.748;2023-06-24T06:29:56;7.15;;;6.45;;
6626;SDS011;3349;49.830;8.748;2023-06-24T06:32:23;7.03;;;6.28;;
6626;SDS011;3349;49.830;8.748;2023-06-24T06:34:50;9.07;;;6.45;;
6626;SDS011;3349;49.830;8.748;2023-06-24T06:37:17;13.40;;;6.72;;
6626;SDS011;3349;49.830;8.748;2023-06-24T06:39:45;6.45;;;5.75;;
6626;SDS011;3349;49.830;8.748;2023-06-24T06:42:12;6.50;;;5.85;;
6626;SDS011;3349;49.830;8.748;2023-06-24T06:44:39;7.28;;;6.53;;
6626;SDS011;3349;49.830;8.748;2023-06-24T06:47:06;7.53;;;6.30;;
6626;SDS011;3349;49.830;8.748;2023-06-24T06:49:33;7.20;;;6.28;;
6626;SDS011;3349;49.830;8.748;2023-06-24T06:52:00;9.77;;;7.00;;
6626;SDS011;3349;49.830;8.748;2023-06-24T06:54:26;7.07;;;5.82;;
6626;SDS011;3349;49.830;8.748;2023-06-24T06:56:55;7.10;;;6.40;;
6626;SDS011;3349;49.830;8.748;2023-06-24T06:59:25;8.27;;;6.40;;
6626;SDS011;3349;49.830;8.748;2023-06-24T07:01:53;7.18;;;5.90;;
6626;SDS011;3349;49.830;8.748;2023-06-24T07:04:19;7.70;;;6.45;;
6626;SDS011;3349;49.830;8.748;2023-06-24T07:06:46;7.45;;;5.80;;
6626;SDS011;3349;49.830;8.748;2023-06-24T07:09:13;9.98;;;6.32;;
6626;SDS011;3349;49.830;8.748;2023-06-24T07:11:40;7.15;;;6.18;;
6626;SDS011;3349;49.830;8.748;2023-06-24T07:14:08;9.23;;;6.68;;
6626;SDS011;3349;49.830;8.748;2023-06-24T07:16:35;8.93;;;6.82;;
6626;SDS011;3349;49.830;8.748;2023-06-24T07:19:02;7.07;;;6.38;;
6626;SDS011;3349;49.830;8.748;2023-06-24T07:21:29;8.80;;;5.95;;
6626;SDS011;3349;49.830;8.748;2023-06-24T07:23:56;7.82;;;7.03;;
6626;SDS011;3349;49.830;8.748;2023-06-24T07:26:22;6.70;;;6.03;;
6626;SDS011;3349;49.830;8.748;2023-06-24T07:28:49;7.78;;;6.65;;
6626;SDS011;3349;49.830;8.748;2023-06-24T07:31:17;8.38;;;6.35;;
6626;SDS011;3349;49.830;8.748;2023-06-24T07:33:44;7.22;;;6.45;;
6626;SDS011;3349;49.830;8.748;2023-06-24T07:36:11;7.78;;;5.90;;
6626;SDS011;3349;49.830;8.748;2023-06-24T07:38:38;7.47;;;6.47;;
6626;SDS011;3349;49.830;8.748;2023-06-24T07:41:05;7.75;;;6.53;;
6626;SDS011;3349;49.830;8.748;2023-06-24T07:43:32;7.57;;;6.75;;
6626;SDS011;3349;49.830;8.748;2023-06-24T07:45:59;9.98;;;6.82;;
6626;SDS011;3349;49.830;8.748;2023-06-24T07:48:27;7.65;;;6.78;;
6626;SDS011;3349;49.830;8.748;2023-06-24T07:50:53;9.77;;;6.72;;
6626;SDS011;3349;49.830;8.748;2023-06-24T07:53:20;8.77;;;7.13;;
6626;SDS011;3349;49.830;8.748;2023-06-24T07:55:47;10.18;;;7.30;;
6626;SDS011;3349;49.830;8.748;2023-06-24T07:58:13;7.35;;;6.55;;
6626;SDS011;3349;49.830;8.748;2023-06-24T08:00:40;8.73;;;7.00;;
6626;SDS011;3349;49.830;8.748;2023-06-24T08:03:07;8.00;;;6.85;;
6626;SDS011;3349;49.830;8.748;2023-06-24T08:05:36;10.02;;;6.93;;
6626;SDS011;3349;49.830;8.748;2023-06-24T08:08:04;7.70;;;6.80;;
6626;SDS011;3349;49.830;8.748;2023-06-24T08:10:30;8.70;;;7.38;;
6626;SDS011;3349;49.830;8.748;2023-06-24T08:12:57;8.20;;;6.95;;
6626;SDS011;3349;49.830;8.748;2023-06-24T08:15:24;7.13;;;6.43;;
6626;SDS011;3349;49.830;8.748;2023-06-24T08:17:51;7.15;;;6.45;;
6626;SDS011;3349;49.830;8.748;2023-06-24T08:20:18;8.50;;;7.65;;
6626;SDS011;3349;49.830;8.748;2023-06-24T08:22:47;7.82;;;7.03;;
6626;SDS011;3349;49.830;8.748;2023-06-24T08:25:14;7.78;;;6.38;;
6626;SDS011;3349;49.830;8.748;2023-06-24T08:33:30;7.60;;;6.75;;
6626;SDS011;3349;49.830;8.748;2023-06-24T08:35:57;7.35;;;6.65;;
6626;SDS011;3349;49.830;8.748;2023-06-24T08:38:26;9.02;;;6.72;;
6626;SDS011;3349;49.830;8.748;2023-06-24T08:40:52;8.75;;;7.03;;
6626;SDS011;3349;49.830;8.748;2023-06-24T08:43:19;8.05;;;7.25;;
6626;SDS011;3349;49.830;8.748;2023-06-24T08:45:46;7.32;;;6.63;;
6626;SDS011;3349;49.830;8.748;2023-06-24T08:51:08;8.90;;;8.00;;
6626;SDS011;3349;49.830;8.748;2023-06-24T08:53:38;9.60;;;8.07;;
6626;SDS011;3349;49.830;8.748;2023-06-24T08:56:08;8.98;;;8.18;;
6626;SDS011;3349;49.830;8.748;2023-06-24T08:58:36;9.10;;;8.20;;
6626;SDS011;3349;49.830;8.748;2023-06-24T09:01:02;8.13;;;7.32;;
6626;SDS011;3349;49.830;8.748;2023-06-24T09:03:30;7.63;;;7.00;;
6626;SDS011;3349;49.830;8.748;2023-06-24T09:05:57;8.00;;;7.30;;
6626;SDS011;3349;49.830;8.748;2023-06-24T09:08:23;8.15;;;7.35;;
6626;SDS011;3349;49.830;8.748;2023-06-24T09:10:53;8.15;;;7.47;;
6626;SDS011;3349;49.830;8.748;2023-06-24T09:13:20;8.10;;;7.28;;
6626;SDS011;3349;49.830;8.748;2023-06-24T09:15:53;8.38;;;7.00;;
6626;SDS011;3349;49.830;8.748;2023-06-24T09:18:26;7.88;;;7.22;;
6626;SDS011;3349;49.830;8.748;2023-06-24T09:20:57;7.30;;;6.60;;
6626;SDS011;3349;49.830;8.748;2023-06-24T09:23:26;8.63;;;7.75;;
6626;SDS011;3349;49.830;8.748;2023-06-24T09:25:56;8.38;;;7.68;;
6626;SDS011;3349;49.830;8.748;2023-06-24T09:28:25;7.60;;;6.88;;
6626;SDS011;3349;49.830;8.748;2023-06-24T09:31:03;7.40;;;6.80;;
6626;SDS011;3349;49.830;8.748;2023-06-24T09:33:31;7.32;;;6.63;;
6626;SDS011;3349;49.830;8.748;2023-06-24T09:35:57;8.45;;;7.53;;
6626;SDS011;3349;49.830;8.748;2023-06-24T09:38:31;8.00;;;7.25;;
6626;SDS011;3349;49.830;8.748;2023-06-24T09:41:02;7.15;;;6.55;;
6626;SDS011;3349;49.830;8.748;2023-06-24T09:43:30;7.55;;;6.80;;
6626;SDS011;3349;49.830;8.748;2023-06-24T09:45:59;8.15;;;7.45;;
6626;SDS011;3349;49.830;8.748;2023-06-24T09:48:27;7.53;;;6.93;;
6626;SDS011;3349;49.830;8.748;2023-06-24T09:50:54;7.32;;;6.72;;
6626;SDS011;3349;49.830;8.748;2023-06-24T09:53:24;7.75;;;7.15;;
6626;SDS011;3349;49.830;8.748;2023-06-24T09:55:52;6.78;;;6.13;;
6626;SDS011;3349;49.830;8.748;2023-06-24T09:58:20;7.35;;;6.75;;
6626;SDS011;3349;49.830;8.748;2023-06-24T10:00:48;6.95;;;6.45;;
6626;SDS011;3349;49.830;8.748;2023-06-24T10:03:16;7.30;;;6.70;;
6626;SDS011;3349;49.830;8.748;2023-06-24T10:05:43;7.70;;;7.00;;
6626;SDS011;3349;49.830;8.748;2023-06-24T10:08:10;8.05;;;7.25;;
6626;SDS011;3349;49.830;8.748;2023-06-24T10:10:39;7.68;;;6.97;;
6626;SDS011;3349;49.830;8.748;2023-06-24T10:13:06;7.43;;;6.82;;
6626;SDS011;3349;49.830;8.748;2023-06-24T10:15:34;7.45;;;6.95;;
6626;SDS011;3349;49.830;8.748;2023-06-24T10:18:02;7.07;;;6.55;;
6626;SDS011;3349;49.830;8.748;2023-06-24T10:20:29;7.25;;;6.65;;
6626;SDS011;3349;49.830;8.748;2023-06-24T10:23:05;6.90;;;6.32;;
6626;SDS011;3349;49.830;8.748;2023-06-24T10:25:35;7.28;;;6.68;;
6626;SDS011;3349;49.830;8.748;2023-06-24T10:28:02;7.72;;;7.13;;
6626;SDS011;3349;49.830;8.748;2023-06-24T10:30:29;7.45;;;6.65;;
6626;SDS011;3349;49.830;8.748;2023-06-24T10:32:59;6.82;;;6.32;;
6626;SDS011;3349;49.830;8.748;2023-06-24T10:35:26;7.80;;;7.10;;
6626;SDS011;3349;49.830;8.748;2023-06-24T10:37:56;7.43;;;6.82;;
6626;SDS011;3349;49.830;8.748;2023-06-24T10:40:35;8.27;;;7.57;;
6626;SDS011;3349;49.830;8.748;2023-06-24T10:43:23;7.30;;;6.57;;
6626;SDS011;3349;49.830;8.748;2023-06-24T10:45:52;7.43;;;6.80;;
6626;SDS011;3349;49.830;8.748;2023-06-24T10:48:21;7.57;;;6.97;;
6626;SDS011;3349;49.830;8.748;2023-06-24T10:50:48;6.93;;;6.35;;
6626;SDS011;3349;49.830;8.748;2023-06-24T10:53:15;7.03;;;6.40;;
6626;SDS011;3349;49.830;8.748;2023-06-24T10:55:44;7.30;;;6.53;;
6626;SDS011;3349;49.830;8.748;2023-06-24T10:58:12;6.43;;;5.93;;
6626;SDS011;3349;49.830;8.748;2023-06-24T11:00:40;7.13;;;6.43;;
6626;SDS011;3349;49.830;8.748;2023-06-24T11:03:08;6.95;;;6.35;;
6626;SDS011;3349;49.830;8.748;2023-06-24T11:05:38;7.47;;;6.78;;
6626;SDS011;3349;49.830;8.748;2023-06-24T11:08:06;6.78;;;5.97;;
6626;SDS011;3349;49.830;8.748;2023-06-24T11:10:33;6.60;;;6.00;;
6626;SDS011;3349;49.830;8.748;2023-06-24T11:13:07;5.72;;;5.22;;
6626;SDS011;3349;49.830;8.748;2023-06-24T11:15:34;6.05;;;5.55;;
6626;SDS011;3349;49.830;8.748;2023-06-24T11:18:01;6.70;;;5.93;;
6626;SDS011;3349;49.830;8.748;2023-06-24T11:20:29;7.35;;;5.95;;
6626;SDS011;3349;49.830;8.748;2023-06-24T11:22:57;6.43;;;5.93;;
6626;SDS011;3349;49.830;8.748;2023-06-24T11:25:24;6.47;;;5.88;;
6626;SDS011;3349;49.830;8.748;2023-06-24T11:27:51;8.20;;;6.80;;
6626;SDS011;3349;49.830;8.748;2023-06-24T11:30:18;8.02;;;7.32;;
6626;SDS011;3349;49.830;8.748;2023-06-24T11:32:45;6.85;;;6.18;;
6626;SDS011;3349;49.830;8.748;2023-06-24T11:35:13;6.55;;;5.90;;
6626;SDS011;3349;49.830;8.748;2023-06-24T11:37:41;6.30;;;5.70;;
6626;SDS011;3349;49.830;8.748;2023-06-24T11:40:10;6.20;;;5.70;;
6626;SDS011;3349;49.830;8.748;2023-06-24T11:42:38;6.10;;;5.60;;
6626;SDS011;3349;49.830;8.748;2023-06-24T11:45:06;6.30;;;5.70;;
6626;SDS011;3349;49.830;8.748;2023-06-24T11:47:34;6.63;;;6.03;;
6626;SDS011;3349;49.830;8.748;2023-06-24T11:50:03;6.82;;;6.22;;
6626;SDS011;3349;49.830;8.748;2023-06-24T11:52:38;6.22;;;5.72;;
6626;SDS011;3349;49.830;8.748;2023-06-24T11:55:12;6.40;;;5.90;;
6626;SDS011;3349;49.830;8.748;2023-06-24T11:57:55;7.40;;;6.05;;
6626;SDS011;3349;49.830;8.748;2023-06-24T12:00:24;5.78;;;5.38;;
6626;SDS011;3349;49.830;8.748;2023-06-24T12:02:55;6.05;;;5.55;;
6626;SDS011;3349;49.830;8.748;2023-06-24T12:05:23;5.93;;;5.43;;
6626;SDS011;3349;49.830;8.748;2023-06-24T12:07:54;6.05;;;5.50;;
6626;SDS011;3349;49.830;8.748;2023-06-24T12:10:23;5.97;;;5.47;;
6626;SDS011;3349;49.830;8.748;2023-06-24T12:12:50;5.53;;;5.03;;
6626;SDS011;3349;49.830;8.748;2023-06-24T12:15:17;6.07;;;5.18;;
6626;SDS011;3349;49.830;8.748;2023-06-24T12:17:43;6.10;;;5.53;;
6626;SDS011;3349;49.830;8.748;2023-06-24T12:20:10;6.25;;;5.32;;
6626;SDS011;3349;49.830;8.748;2023-06-24T12:22:39;6.22;;;5.63;;
6626;SDS011;3349;49.830;8.748;2023-06-24T12:25:06;6.10;;;5.60;;
6626;SDS011;3349;49.830;8.748;2023-06-24T12:27:35;6.55;;;6.03;;
6626;SDS011;3349;49.830;8.748;2023-06-24T12:30:02;6.25;;;5.68;;
6626;SDS011;3349;49.830;8.748;2023-06-24T12:32:29;6.57;;;5.97;;
6626;SDS011;3349;49.830;8.748;2023-06-24T12:34:55;6.78;;;6.20;;
6626;SDS011;3349;49.830;8.748;2023-06-24T12:37:22;6.15;;;5.65;;
6626;SDS011;3349;49.830;8.748;2023-06-24T12:39:49;6.70;;;5.97;;
6626;SDS011;3349;49.830;8.748;2023-06-24T12:42:17;6.25;;;5.65;;
6626;SDS011;3349;49.830;8.748;2023-06-24T12:44:45;6.05;;;5.45;;
6626;SDS011;3349;49.830;8.748;2023-06-24T12:47:11;5.97;;;5.47;;
6626;SDS011;3349;49.830;8.748;2023-06-24T12:49:38;6.07;;;5.57;;
6626;SDS011;3349;49.830;8.748;2023-06-24T12:52:05;6.00;;;5.38;;
6626;SDS011;3349;49.830;8.748;2023-06-24T12:54:32;6.63;;;6.13;;
6626;SDS011;3349;49.830;8.748;2023-06-24T12:56:59;5.78;;;5.38;;
6626;SDS011;3349;49.830;8.748;2023-06-24T12:59:26;6.75;;;6.03;;
6626;SDS011;3349;49.830;8.748;2023-06-24T13:01:54;6.07;;;5.32;;
6626;SDS011;3349;49.830;8.748;2023-06-24T13:04:21;6.53;;;6.03;;
6626;SDS011;3349;49.830;8.748;2023-06-24T13:06:49;5.80;;;5.30;;
6626;SDS011;3349;49.830;8.748;2023-06-24T13:09:17;6.10;;;5.60;;
6626;SDS011;3349;49.830;8.748;2023-06-24T13:11:43;6.28;;;5.78;;
6626;SDS011;3349;49.830;8.748;2023-06-24T13:14:10;6.50;;;5.93;;
6626;SDS011;3349;49.830;8.748;2023-06-24T13:16:37;6.55;;;6.00;;
6626;SDS011;3349;49.830;8.748;2023-06-24T13:19:05;5.93;;;5.45;;
6626;SDS011;3349;49.830;8.748;2023-06-24T13:21:32;6.28;;;5.68;;
6626;SDS011;3349;49.830;8.748;2023-06-24T13:23:58;5.95;;;5.45;;
6626;SDS011;3349;49.830;8.748;2023-06-24T13:26:25;6.10;;;5.50;;
6626;SDS011;3349;49.830;8.748;2023-06-24T13:28:52;5.65;;;5.15;;
6626;SDS011;3349;49.830;8.748;2023-06-24T13:31:19;5.05;;;4.55;;
6626;SDS011;3349;49.830;8.748;2023-06-24T13:33:46;5.47;;;4.97;;
6626;SDS011;3349;49.830;8.748;2023-06-24T13:36:28;5.30;;;4.90;;
6626;SDS011;3349;49.830;8.748;2023-06-24T13:38:57;5.60;;;4.90;;
6626;SDS011;3349;49.830;8.748;2023-06-24T13:41:24;5.40;;;4.90;;
6626;SDS011;3349;49.830;8.748;2023-06-24T13:43:54;5.75;;;5.25;;
6626;SDS011;3349;49.830;8.748;2023-06-24T13:46:21;5.28;;;4.78;;
6626;SDS011;3349;49.830;8.748;2023-06-24T13:48:48;5.43;;;4.93;;
6626;SDS011;3349;49.830;8.748;2023-06-24T13:51:16;8.07;;;5.10;;
6626;SDS011;3349;49.830;8.748;2023-06-24T13:53:44;6.75;;;5.00;;
6626;SDS011;3349;49.830;8.748;2023-06-24T13:56:11;4.85;;;4.45;;
6626;SDS011;3349;49.830;8.748;2023-06-24T13:58:38;5.15;;;4.72;;
6626;SDS011;3349;49.830;8.748;2023-06-24T14:01:04;5.75;;;5.25;;
6626;SDS011;3349;49.830;8.748;2023-06-24T14:03:31;7.05;;;4.93;;
6626;SDS011;3349;49.830;8.748;2023-06-24T14:05:58;5.75;;;5.25;;
6626;SDS011;3349;49.830;8.748;2023-06-24T14:08:27;5.85;;;5.30;;
6626;SDS011;3349;49.830;8.748;2023-06-24T14:10:55;6.43;;;5.15;;
6626;SDS011;3349;49.830;8.748;2023-06-24T14:13:21;6.18;;;5.35;;
6626;SDS011;3349;49.830;8.748;2023-06-24T14:15:49;5.95;;;5.38;;
6626;SDS011;3349;49.830;8.748;2023-06-24T14:18:15;5.90;;;5.40;;
6626;SDS011;3349;49.830;8.748;2023-06-24T14:20:42;5.45;;;4.95;;
6626;SDS011;3349;49.830;8.748;2023-06-24T14:23:09;6.53;;;5.38;;
6626;SDS011;3349;49.830;8.748;2023-06-24T14:25:37;5.75;;;5.25;;
6626;SDS011;3349;49.830;8.748;2023-06-24T14:28:04;6.80;;;5.97;;
6626;SDS011;3349;49.830;8.748;2023-06-24T14:30:31;5.72;;;5.22;;
6626;SDS011;3349;49.830;8.748;2023-06-24T14:33:00;6.63;;;5.97;;
6626;SDS011;3349;49.830;8.748;2023-06-24T14:35:27;6.82;;;5.05;;
6626;SDS011;3349;49.830;8.748;2023-06-24T14:37:54;5.80;;;5.30;;
6626;SDS011;3349;49.830;8.748;2023-06-24T14:40:20;5.95;;;5.40;;
6626;SDS011;3349;49.830;8.748;2023-06-24T14:42:49;6.03;;;5.53;;
6626;SDS011;3349;49.830;8.748;2023-06-24T14:45:15;6.18;;;5.35;;
6626;SDS011;3349;49.830;8.748;2023-06-24T14:47:42;6.20;;;5.60;;
6626;SDS011;3349;49.830;8.748;2023-06-24T14:50:09;6.57;;;5.97;;
6626;SDS011;3349;49.830;8.748;2023-06-24T14:52:36;6.07;;;5.47;;
6626;SDS011;3349;49.830;8.748;2023-06-24T14:55:03;6.15;;;5.70;;
6626;SDS011;3349;49.830;8.748;2023-06-24T14:57:30;6.07;;;5.55;;
6626;SDS011;3349;49.830;8.748;2023-06-24T14:59:58;5.75;;;5.35;;
6626;SDS011;3349;49.830;8.748;2023-06-24T15:02:24;6.38;;;5.88;;
6626;SDS011;3349;49.830;8.748;2023-06-24T15:04:51;6.00;;;5.40;;
6626;SDS011;3349;49.830;8.748;2023-06-24T15:07:18;7.57;;;5.90;;
6626;SDS011;3349;49.830;8.748;2023-06-24T15:09:45;7.88;;;6.32;;
6626;SDS011;3349;49.830;8.748;2023-06-24T15:12:11;5.75;;;5.28;;
6626;SDS011;3349;49.830;8.748;2023-06-24T15:14:38;6.47;;;5.53;;
6626;SDS011;3349;49.830;8.748;2023-06-24T15:17:06;6.10;;;5.50;;
6626;SDS011;3349;49.830;8.748;2023-06-24T15:19:33;6.45;;;5.90;;
6626;SDS011;3349;49.830;8.748;2023-06-24T15:22:00;6.88;;;5.80;;
6626;SDS011;3349;49.830;8.748;2023-06-24T15:24:27;6.60;;;6.00;;
6626;SDS011;3349;49.830;8.748;2023-06-24T15:26:53;6.18;;;5.68;;
6626;SDS011;3349;49.830;8.748;2023-06-24T15:29:22;5.70;;;5.28;;